createdAt,value
2018-09-02T00:00:38.434Z,19.19
2018-09-02T00:03:07.443Z,19.08
2018-09-02T00:05:36.344Z,19.00
2018-09-02T00:08:05.455Z,18.91
2018-09-02T00:10:34.504Z,18.81
2018-09-02T00:13:03.364Z,18.85
2018-09-02T00:15:32.614Z,18.92
2018-09-02T00:18:01.210Z,18.56
2018-09-02T00:20:30.349Z,18.58
2018-09-02T00:22:59.612Z,18.48
2018-09-02T00:25:28.334Z,18.64
2018-09-02T00:27:56.983Z,18.58
2018-09-02T00:30:25.996Z,18.73
2018-09-02T00:32:54.714Z,18.88
2018-09-02T00:35:23.472Z,18.90
2018-09-02T00:37:52.780Z,18.85
2018-09-02T00:40:21.534Z,18.95
2018-09-02T00:42:50.559Z,19.00
2018-09-02T00:45:19.619Z,18.60
2018-09-02T00:47:48.419Z,18.62
2018-09-02T00:50:17.208Z,18.80
2018-09-02T00:52:46.274Z,18.76
2018-09-02T00:55:14.994Z,18.86
2018-09-02T00:57:43.678Z,18.68
2018-09-02T01:00:12.684Z,18.87
2018-09-02T01:02:41.463Z,18.91
2018-09-02T01:05:10.479Z,18.92
2018-09-02T01:07:39.927Z,18.73
2018-09-02T01:10:09.159Z,18.42
2018-09-02T01:12:37.947Z,18.19
2018-09-02T01:15:07.327Z,18.10
2018-09-02T01:17:36.211Z,18.03
2018-09-02T01:20:05.338Z,18.00
2018-09-02T01:22:34.446Z,18.00
2018-09-02T01:25:03.250Z,18.14
2018-09-02T01:27:31.845Z,18.13
2018-09-02T01:30:00.968Z,18.13
2018-09-02T01:32:30.083Z,18.27
2018-09-02T01:34:58.910Z,18.40
2018-09-02T01:37:28.346Z,18.25
2018-09-02T01:39:57.155Z,18.40
2018-09-02T01:42:26.155Z,18.46
2018-09-02T01:44:55.228Z,18.50
2018-09-02T01:47:24.271Z,18.56
2018-09-02T01:49:53.243Z,18.47
2018-09-02T01:52:22.171Z,18.53
2018-09-02T01:54:50.902Z,18.27
2018-09-02T01:57:19.646Z,18.39
2018-09-02T01:59:48.748Z,18.45
2018-09-02T02:02:17.939Z,18.37
2018-09-02T02:04:46.932Z,18.28
2018-09-02T02:07:16.022Z,18.11
2018-09-02T02:09:44.917Z,17.97
2018-09-02T02:12:13.987Z,18.00
2018-09-02T02:14:43.051Z,18.15
2018-09-02T02:17:11.813Z,18.20
2018-09-02T02:19:40.543Z,18.00
2018-09-02T02:22:09.511Z,17.92
2018-09-02T02:24:44.691Z,17.76
2018-09-02T02:27:13.681Z,17.78
2018-09-02T02:29:42.570Z,17.78
2018-09-02T02:32:11.494Z,17.59
2018-09-02T02:34:40.612Z,17.44
2018-09-02T02:37:09.687Z,17.43
2018-09-02T02:39:38.373Z,17.39
2018-09-02T02:42:07.783Z,17.38
2018-09-02T02:44:36.870Z,17.27
2018-09-02T02:47:05.913Z,17.24
2018-09-02T02:49:35.290Z,17.29
2018-09-02T02:52:04.049Z,17.17
2018-09-02T02:54:32.822Z,17.25
2018-09-02T02:57:01.668Z,17.16
2018-09-02T02:59:30.464Z,17.14
2018-09-02T03:01:59.510Z,17.21
2018-09-02T03:04:28.343Z,17.22
2018-09-02T03:06:57.306Z,17.07
2018-09-02T03:09:26.170Z,17.21
2018-09-02T03:11:55.500Z,17.15
2018-09-02T03:14:24.487Z,16.99
2018-09-02T03:16:53.589Z,16.99
2018-09-02T03:19:22.384Z,16.96
2018-09-02T03:21:51.175Z,16.99
2018-09-02T03:24:20.438Z,16.90
2018-09-02T03:26:49.069Z,16.77
2018-09-02T03:29:18.047Z,16.71
2018-09-02T03:31:46.883Z,16.74
2018-09-02T03:34:15.807Z,16.81
2018-09-02T03:36:44.825Z,16.79
2018-09-02T03:39:14.105Z,16.89
2018-09-02T03:41:43.174Z,16.94
2018-09-02T03:44:11.908Z,17.04
2018-09-02T03:46:41.127Z,17.21
2018-09-02T03:49:09.906Z,17.15
2018-09-02T03:51:38.877Z,16.98
2018-09-02T03:54:07.599Z,16.88
2018-09-02T03:56:36.402Z,16.96
2018-09-02T03:59:05.328Z,17.16
2018-09-02T04:01:34.581Z,17.23
2018-09-02T04:04:03.714Z,17.25
2018-09-02T04:06:32.650Z,17.15
2018-09-02T04:09:01.975Z,17.04
2018-09-02T04:11:31.003Z,17.05
2018-09-02T04:13:59.888Z,16.82
2018-09-02T04:16:28.902Z,17.01
2018-09-02T04:18:58.479Z,17.06
2018-09-02T04:21:27.618Z,17.23
2018-09-02T04:23:56.414Z,17.24
2018-09-02T04:26:25.095Z,17.06
2018-09-02T04:28:54.114Z,17.24
2018-09-02T04:31:23.319Z,17.14
2018-09-02T04:33:52.155Z,17.26
2018-09-02T04:36:21.666Z,17.29
2018-09-02T04:38:50.511Z,17.44
2018-09-02T04:41:19.667Z,17.59
2018-09-02T04:43:49.035Z,17.67
2018-09-02T04:46:18.202Z,17.56
2018-09-02T04:48:47.106Z,17.99
2018-09-02T04:51:15.775Z,18.04
2018-09-02T04:53:44.708Z,18.06
2018-09-02T04:56:13.551Z,18.13
2018-09-02T04:58:42.338Z,18.24
2018-09-02T05:01:11.596Z,18.16
2018-09-02T05:03:40.506Z,18.32
2018-09-02T05:06:09.220Z,18.44
2018-09-02T05:08:38.264Z,18.57
2018-09-02T05:11:07.141Z,18.72
2018-09-02T05:13:35.944Z,18.78
2018-09-02T05:16:05.111Z,18.96
2018-09-02T05:18:33.732Z,19.00
2018-09-02T05:21:03.001Z,19.11
2018-09-02T05:23:32.201Z,19.19
2018-09-02T05:26:00.965Z,19.25
2018-09-02T05:28:29.958Z,19.16
2018-09-02T05:30:59.220Z,19.23
2018-09-02T05:33:28.161Z,19.51
2018-09-02T05:35:57.200Z,19.66
2018-09-02T05:38:26.467Z,19.66
2018-09-02T05:40:55.447Z,19.62
2018-09-02T05:43:24.159Z,19.81
2018-09-02T05:45:53.246Z,19.79
2018-09-02T05:48:22.214Z,20.17
2018-09-02T05:50:50.858Z,20.53
2018-09-02T05:53:19.882Z,20.27
2018-09-02T05:55:48.652Z,20.53
2018-09-02T05:58:17.771Z,20.54
2018-09-02T06:00:47.119Z,20.81
2018-09-02T06:03:16.167Z,20.83
2018-09-02T06:05:45.076Z,20.60
2018-09-02T06:08:13.911Z,20.98
2018-09-02T06:10:42.918Z,20.98
2018-09-02T06:13:14.279Z,21.10
2018-09-02T06:15:43.338Z,21.19
2018-09-02T06:18:12.842Z,21.34
2018-09-02T06:20:41.591Z,21.23
2018-09-02T06:23:10.486Z,21.37
2018-09-02T06:25:39.971Z,21.55
2018-09-02T06:28:08.893Z,21.70
2018-09-02T06:30:37.938Z,21.85
2018-09-02T06:33:07.103Z,21.80
2018-09-02T06:35:35.845Z,21.84
2018-09-02T06:38:04.961Z,21.99
2018-09-02T06:40:34.191Z,22.18
2018-09-02T06:43:02.955Z,22.37
2018-09-02T06:45:32.001Z,22.33
2018-09-02T06:48:01.151Z,22.44
2018-09-02T06:50:30.034Z,22.43
2018-09-02T06:52:58.764Z,22.76
2018-09-02T06:55:27.954Z,22.98
2018-09-02T06:57:57.037Z,22.79
2018-09-02T07:00:25.994Z,23.13
2018-09-02T07:02:55.053Z,23.14
2018-09-02T07:05:23.754Z,23.18
2018-09-02T07:07:52.696Z,23.13
2018-09-02T07:10:21.820Z,23.44
2018-09-02T07:12:50.929Z,23.74
2018-09-02T07:15:19.841Z,23.73
2018-09-02T07:17:49.077Z,23.58
2018-09-02T07:20:17.838Z,23.59
2018-09-02T07:22:46.563Z,23.81
2018-09-02T07:25:15.713Z,23.92
2018-09-02T07:27:44.854Z,24.00
2018-09-02T07:30:13.798Z,24.32
2018-09-02T07:32:42.851Z,24.38
2018-09-02T07:35:12.246Z,24.37
2018-09-02T07:37:41.035Z,24.71
2018-09-02T07:40:10.206Z,25.00
2018-09-02T07:42:39.202Z,25.02
2018-09-02T07:45:09.620Z,25.23
2018-09-02T07:47:38.304Z,25.45
2018-09-02T07:50:07.284Z,25.46
2018-09-02T07:52:36.032Z,25.48
2018-09-02T07:55:05.425Z,25.66
2018-09-02T07:57:34.843Z,26.00
2018-09-02T08:00:03.755Z,26.06
2018-09-02T08:02:32.786Z,26.16
2018-09-02T08:05:02.010Z,26.35
2018-09-02T08:07:31.332Z,26.33
2018-09-02T08:10:00.425Z,26.34
2018-09-02T08:12:29.722Z,26.42
2018-09-02T08:14:58.623Z,26.55
2018-09-02T08:17:27.431Z,26.58
2018-09-02T08:19:56.200Z,26.83
2018-09-02T08:22:24.974Z,26.88
2018-09-02T08:24:54.344Z,27.07
2018-09-02T08:27:23.166Z,27.28
2018-09-02T08:29:52.026Z,27.60
2018-09-02T08:32:21.580Z,27.59
2018-09-02T08:34:50.847Z,27.73
2018-09-02T08:37:19.679Z,27.81
2018-09-02T08:39:49.079Z,27.97
2018-09-02T08:42:17.813Z,27.98
2018-09-02T08:44:46.760Z,27.99
2018-09-02T08:47:16.186Z,28.04
2018-09-02T08:49:44.754Z,28.03
2018-09-02T08:52:13.780Z,28.13
2018-09-02T08:54:42.706Z,28.10
2018-09-02T08:57:11.712Z,28.41
2018-09-02T08:59:40.398Z,28.43
2018-09-02T09:02:09.493Z,28.38
2018-09-02T09:04:38.186Z,28.86
2018-09-02T09:07:07.118Z,28.94
2018-09-02T09:09:36.500Z,29.05
2018-09-02T09:12:05.910Z,29.13
2018-09-02T09:14:34.913Z,29.22
2018-09-02T09:17:03.825Z,29.41
2018-09-02T09:19:32.407Z,29.40
2018-09-02T09:22:01.208Z,29.30
2018-09-02T09:24:30.067Z,29.54
2018-09-02T09:26:58.816Z,29.82
2018-09-02T09:29:27.854Z,29.85
2018-09-02T09:31:57.158Z,29.91
2018-09-02T09:34:26.635Z,29.84
2018-09-02T09:36:55.602Z,30.04
2018-09-02T09:39:24.405Z,29.91
2018-09-02T09:41:53.618Z,30.70
2018-09-02T09:44:22.547Z,30.77
2018-09-02T09:46:51.694Z,31.00
2018-09-02T09:49:20.835Z,31.15
2018-09-02T09:51:49.876Z,30.74
2018-09-02T09:54:18.681Z,31.43
2018-09-02T09:56:47.976Z,31.50
2018-09-02T09:59:17.282Z,31.73
2018-09-02T10:01:46.278Z,32.09
2018-09-02T10:04:15.595Z,32.24
2018-09-02T10:06:44.366Z,32.36
2018-09-02T10:09:15.007Z,32.40
2018-09-02T10:11:44.787Z,32.99
2018-09-02T10:14:13.666Z,33.08
2018-09-02T10:16:42.410Z,32.73
2018-09-02T10:19:11.414Z,33.16
2018-09-02T10:21:40.174Z,33.05
2018-09-02T10:24:09.182Z,32.25
2018-09-02T10:26:38.469Z,32.48
2018-09-02T10:29:07.473Z,32.77
2018-09-02T10:31:36.498Z,31.89
2018-09-02T10:34:05.925Z,32.76
2018-09-02T10:36:35.196Z,33.35
2018-09-02T10:39:05.067Z,33.46
2018-09-02T10:41:34.399Z,33.57
2018-09-02T10:44:03.249Z,33.77
2018-09-02T10:46:32.066Z,34.09
2018-09-02T10:49:00.784Z,33.64
2018-09-02T10:51:29.774Z,33.94
2018-09-02T10:53:58.847Z,33.91
2018-09-02T10:56:27.784Z,33.08
2018-09-02T10:58:56.927Z,32.52
2018-09-02T11:01:25.793Z,33.49
2018-09-02T11:03:54.703Z,34.03
2018-09-02T11:06:23.393Z,34.40
2018-09-02T11:08:52.608Z,34.88
2018-09-02T11:11:22.005Z,34.72
2018-09-02T11:13:51.465Z,35.44
2018-09-02T11:16:20.437Z,35.42
2018-09-02T11:18:49.177Z,35.94
2018-09-02T11:21:17.929Z,35.87
2018-09-02T11:23:50.171Z,35.64
2018-09-02T11:26:19.457Z,36.10
2018-09-02T11:28:48.383Z,36.12
2018-09-02T11:31:17.697Z,35.89
2018-09-02T11:33:46.573Z,35.77
2018-09-02T11:36:15.780Z,35.96
2018-09-02T11:38:45.460Z,35.87
2018-09-02T11:41:14.640Z,34.79
2018-09-02T11:43:43.690Z,35.50
2018-09-02T11:46:12.743Z,35.36
2018-09-02T11:48:41.472Z,34.06
2018-09-02T11:51:10.414Z,34.66
2018-09-02T11:53:39.635Z,34.10
2018-09-02T11:56:08.709Z,34.68
2018-09-02T11:58:37.567Z,34.19
2018-09-02T12:01:06.813Z,34.72
2018-09-02T12:03:35.939Z,33.83
2018-09-02T12:06:05.035Z,33.59
2018-09-02T12:08:34.137Z,33.83
2018-09-02T12:11:03.091Z,33.97
2018-09-02T12:13:31.870Z,34.33
2018-09-02T12:16:00.898Z,33.69
2018-09-02T12:18:29.931Z,34.12
2018-09-02T12:20:59.093Z,33.72
2018-09-02T12:23:28.477Z,34.43
2018-09-02T12:25:57.478Z,34.55
2018-09-02T12:28:26.761Z,34.86
2018-09-02T12:30:55.983Z,35.33
2018-09-02T12:33:24.714Z,35.96
2018-09-02T12:35:53.895Z,34.85
2018-09-02T12:38:23.162Z,35.49
2018-09-02T12:40:52.086Z,35.93
2018-09-02T12:43:20.963Z,35.52
2018-09-02T12:45:50.269Z,35.86
2018-09-02T12:48:19.553Z,35.17
2018-09-02T12:50:48.313Z,36.46
2018-09-02T12:53:17.235Z,36.43
2018-09-02T12:55:46.205Z,35.89
2018-09-02T12:58:15.422Z,36.73
2018-09-02T13:00:44.611Z,36.29
2018-09-02T13:03:13.397Z,35.79
2018-09-02T13:05:42.295Z,36.19
2018-09-02T13:08:11.320Z,36.05
2018-09-02T13:10:40.262Z,35.90
2018-09-02T13:13:09.003Z,36.76
2018-09-02T13:15:38.284Z,36.75
2018-09-02T13:18:07.014Z,37.37
2018-09-02T13:20:36.031Z,37.18
2018-09-02T13:23:05.358Z,36.39
2018-09-02T13:25:34.314Z,36.32
2018-09-02T13:28:03.124Z,36.88
2018-09-02T13:30:32.352Z,36.49
2018-09-02T13:33:01.153Z,36.76
2018-09-02T13:35:30.098Z,37.10
2018-09-02T13:40:39.876Z,37.50
2018-09-02T13:43:08.680Z,36.53
2018-09-02T13:45:37.384Z,37.66
2018-09-02T13:48:06.390Z,37.13
2018-09-02T13:50:35.847Z,36.65
2018-09-02T13:53:04.848Z,36.91
2018-09-02T13:55:33.619Z,37.23
2018-09-02T13:58:02.663Z,37.10
2018-09-02T14:00:31.363Z,37.96
2018-09-02T14:03:00.423Z,38.22
2018-09-02T14:05:29.135Z,38.14
2018-09-02T14:07:58.338Z,38.33
2018-09-02T14:10:27.030Z,38.83
2018-09-02T14:12:55.966Z,39.44
2018-09-02T14:15:24.758Z,39.48
2018-09-02T14:17:53.814Z,39.36
2018-09-02T14:20:23.289Z,39.92
2018-09-02T14:22:52.523Z,40.17
2018-09-02T14:25:21.441Z,40.23
2018-09-02T14:27:50.998Z,40.85
2018-09-02T14:30:20.084Z,40.54
2018-09-02T14:32:49.147Z,40.22
2018-09-02T14:35:18.386Z,39.76
2018-09-02T14:37:47.204Z,38.75
2018-09-02T14:40:15.916Z,39.18
2018-09-02T14:42:45.141Z,39.55
2018-09-02T14:45:13.946Z,39.73
2018-09-02T14:47:42.922Z,39.54
2018-09-02T14:50:12.223Z,40.01
2018-09-02T14:52:41.299Z,40.30
2018-09-02T14:55:10.594Z,40.54
2018-09-02T14:57:40.031Z,40.50
2018-09-02T15:00:08.878Z,40.71
2018-09-02T15:02:37.743Z,40.54
2018-09-02T15:05:06.815Z,40.96
2018-09-02T15:07:35.522Z,41.28
2018-09-02T15:10:04.360Z,40.93
2018-09-02T15:12:33.492Z,41.23
2018-09-02T15:15:02.471Z,41.36
2018-09-02T15:17:31.440Z,40.05
2018-09-02T15:20:00.799Z,40.59
2018-09-02T15:22:29.750Z,40.26
2018-09-02T15:24:58.592Z,40.43
2018-09-02T15:27:27.977Z,40.15
2018-09-02T15:29:56.953Z,40.17
2018-09-02T15:32:25.726Z,40.63
2018-09-02T15:34:54.659Z,40.64
2018-09-02T15:37:23.626Z,40.17
2018-09-02T15:39:52.323Z,39.64
2018-09-02T15:42:21.530Z,39.83
2018-09-02T15:44:50.362Z,39.85
2018-09-02T15:47:19.296Z,40.15
2018-09-02T15:49:48.503Z,39.84
2018-09-02T15:52:17.198Z,39.92
2018-09-02T15:54:45.852Z,40.06
2018-09-02T15:57:15.121Z,39.17
2018-09-02T15:59:43.846Z,39.24
2018-09-02T16:02:12.938Z,39.45
2018-09-02T16:04:42.470Z,39.62
2018-09-02T16:07:11.513Z,39.68
2018-09-02T16:09:40.267Z,38.73
2018-09-02T16:12:09.483Z,39.49
2018-09-02T16:14:38.500Z,38.91
2018-09-02T16:17:07.451Z,39.05
2018-09-02T16:19:36.462Z,38.90
2018-09-02T16:22:05.562Z,38.69
2018-09-02T16:24:34.733Z,38.53
2018-09-02T16:27:03.821Z,38.33
2018-09-02T16:29:32.839Z,38.28
2018-09-02T16:32:01.678Z,37.83
2018-09-02T16:34:30.791Z,37.25
2018-09-02T16:36:59.687Z,36.83
2018-09-02T16:39:28.334Z,36.26
2018-09-02T16:41:57.143Z,35.88
2018-09-02T16:44:26.302Z,35.41
2018-09-02T16:46:55.286Z,34.84
2018-09-02T16:49:24.352Z,34.16
2018-09-02T16:51:53.227Z,33.92
2018-09-02T16:54:22.063Z,33.29
2018-09-02T16:56:51.243Z,32.73
2018-09-02T16:59:20.247Z,32.09
2018-09-02T17:01:49.054Z,31.48
2018-09-02T17:04:18.755Z,31.19
2018-09-02T17:06:47.709Z,30.69
2018-09-02T17:09:16.531Z,30.41
2018-09-02T17:11:45.361Z,30.34
2018-09-02T17:14:13.927Z,30.11
2018-09-02T17:16:43.263Z,29.84
2018-09-02T17:19:16.735Z,29.66
2018-09-02T17:21:45.732Z,29.82
2018-09-02T17:24:14.779Z,29.58
2018-09-02T17:26:43.590Z,29.25
2018-09-02T17:29:12.652Z,29.06
2018-09-02T17:31:41.395Z,29.08
2018-09-02T17:34:10.671Z,28.88
2018-09-02T17:36:39.495Z,28.52
2018-09-02T17:39:10.178Z,28.50
2018-09-02T17:41:38.964Z,28.34
2018-09-02T17:44:07.967Z,28.17
2018-09-02T17:46:37.121Z,28.00
2018-09-02T17:49:06.327Z,27.94
2018-09-02T17:51:35.475Z,27.96
2018-09-02T17:54:04.365Z,27.99
2018-09-02T17:56:33.580Z,27.91
2018-09-02T17:59:02.367Z,27.71
2018-09-02T18:01:31.566Z,27.38
2018-09-02T18:04:00.294Z,27.29
2018-09-02T18:06:28.954Z,27.41
2018-09-02T18:08:57.622Z,27.22
2018-09-02T18:11:26.210Z,27.16
2018-09-02T18:13:55.196Z,27.18
2018-09-02T18:16:24.342Z,27.08
2018-09-02T18:18:53.268Z,27.00
2018-09-02T18:21:21.978Z,26.84
2018-09-02T18:23:50.864Z,26.72
2018-09-02T18:26:20.005Z,26.57
2018-09-02T18:28:49.671Z,26.60
2018-09-02T18:31:18.735Z,26.54
2018-09-02T18:33:47.532Z,26.32
2018-09-02T18:36:16.391Z,26.30
2018-09-02T18:38:45.099Z,26.27
2018-09-02T18:41:13.899Z,26.15
2018-09-02T18:43:42.844Z,26.04
2018-09-02T18:46:12.394Z,25.94
2018-09-02T18:48:41.303Z,25.85
2018-09-02T18:51:09.941Z,25.85
2018-09-02T18:53:38.620Z,25.78
2018-09-02T18:56:07.464Z,25.72
2018-09-02T18:58:36.698Z,25.69
2018-09-02T19:01:05.723Z,25.70
2018-09-02T19:03:34.733Z,25.56
2018-09-02T19:06:03.602Z,25.62
2018-09-02T19:08:32.543Z,25.55
2018-09-02T19:11:01.420Z,25.47
2018-09-02T19:13:30.109Z,25.41
2018-09-02T19:15:58.937Z,25.28
2018-09-02T19:18:27.870Z,25.36
2018-09-02T19:20:56.681Z,25.27
2018-09-02T19:23:25.595Z,25.34
2018-09-02T19:25:54.714Z,24.98
2018-09-02T19:28:23.445Z,25.05
2018-09-02T19:30:52.220Z,25.09
2018-09-02T19:33:21.055Z,25.20
2018-09-02T19:35:49.727Z,25.09
2018-09-02T19:38:18.327Z,25.20
2018-09-02T19:40:47.348Z,25.29
2018-09-02T19:43:16.372Z,25.13
2018-09-02T19:45:45.130Z,24.97
2018-09-02T19:48:14.231Z,25.05
2018-09-02T19:50:43.383Z,25.02
2018-09-02T19:53:12.711Z,25.00
2018-09-02T19:55:41.680Z,25.01
2018-09-02T19:58:10.598Z,24.90
2018-09-02T20:00:39.541Z,24.87
2018-09-02T20:03:08.425Z,24.72
2018-09-02T20:05:37.082Z,24.95
2018-09-02T20:08:05.848Z,24.80
2018-09-02T20:10:35.070Z,24.77
2018-09-02T20:13:03.998Z,24.50
2018-09-02T20:15:33.241Z,24.61
2018-09-02T20:18:02.402Z,24.63
2018-09-02T20:20:31.320Z,24.50
2018-09-02T20:23:00.436Z,24.71
2018-09-02T20:25:29.447Z,24.61
2018-09-02T20:27:58.322Z,24.76
2018-09-02T20:30:27.247Z,24.66
2018-09-02T20:32:56.131Z,24.42
2018-09-02T20:35:24.795Z,24.44
2018-09-02T20:37:53.386Z,24.57
2018-09-02T20:40:22.538Z,24.45
2018-09-02T20:42:51.552Z,24.32
2018-09-02T20:45:20.520Z,24.38
2018-09-02T20:47:49.636Z,24.36
2018-09-02T20:50:18.640Z,24.24
2018-09-02T20:52:47.491Z,24.25
2018-09-02T20:55:16.322Z,24.25
2018-09-02T20:57:45.266Z,24.23
2018-09-02T21:00:14.430Z,24.16
2018-09-02T21:02:43.103Z,24.06
2018-09-02T21:05:11.923Z,24.02
2018-09-02T21:07:40.581Z,23.99
2018-09-02T21:10:09.344Z,23.99
2018-09-02T21:12:39.273Z,24.02
2018-09-02T21:15:08.035Z,23.98
2018-09-02T21:17:36.979Z,23.97
2018-09-02T21:20:06.108Z,23.80
2018-09-02T21:22:35.027Z,23.94
2018-09-02T21:25:04.273Z,23.93
2018-09-02T21:27:33.335Z,23.89
2018-09-02T21:30:02.458Z,23.90
2018-09-02T21:32:31.187Z,23.94
2018-09-02T21:34:59.943Z,23.91
2018-09-02T21:37:28.671Z,23.95
2018-09-02T21:39:57.411Z,23.92
2018-09-02T21:42:26.514Z,24.00
2018-09-02T21:44:55.719Z,24.02
2018-09-02T21:47:24.340Z,23.93
2018-09-02T21:49:53.422Z,23.78
2018-09-02T21:52:22.240Z,23.68
2018-09-02T21:54:51.071Z,23.76
2018-09-02T21:57:19.921Z,23.68
2018-09-02T21:59:49.012Z,23.65
2018-09-02T22:02:17.685Z,23.63
2018-09-02T22:04:46.438Z,23.71
2018-09-02T22:07:15.148Z,23.62
2018-09-02T22:09:43.963Z,23.44
2018-09-02T22:12:12.800Z,23.34
2018-09-02T22:14:41.643Z,23.28
2018-09-02T22:17:10.591Z,23.20
2018-09-02T22:19:39.340Z,23.15
2018-09-02T22:22:08.146Z,23.05
2018-09-02T22:24:36.915Z,22.96
2018-09-02T22:27:05.735Z,22.83
2018-09-02T22:29:34.677Z,22.56
2018-09-02T22:32:03.569Z,22.31
2018-09-02T22:34:32.342Z,22.07
2018-09-02T22:37:01.072Z,21.91
2018-09-02T22:39:30.003Z,21.94
2018-09-02T22:41:59.188Z,21.86
2018-09-02T22:44:27.854Z,22.07
2018-09-02T22:46:56.893Z,22.04
2018-09-02T22:49:25.879Z,21.84
2018-09-02T22:51:54.870Z,21.89
2018-09-02T22:54:23.970Z,21.64
2018-09-02T22:56:53.054Z,21.20
2018-09-02T22:59:22.217Z,21.10
2018-09-02T23:01:50.941Z,21.43
2018-09-02T23:04:19.668Z,21.14
2018-09-02T23:06:48.560Z,21.15
2018-09-02T23:09:17.375Z,21.15
2018-09-02T23:11:46.271Z,20.99
2018-09-02T23:14:15.237Z,20.96
2018-09-02T23:16:44.124Z,20.77
2018-09-02T23:19:12.988Z,20.95
2018-09-02T23:21:41.875Z,20.83
2018-09-02T23:24:10.742Z,20.77
2018-09-02T23:26:39.516Z,20.70
2018-09-02T23:29:08.493Z,20.79
2018-09-02T23:31:37.310Z,20.75
2018-09-02T23:34:06.295Z,20.77
2018-09-02T23:36:35.265Z,20.57
2018-09-02T23:39:05.352Z,20.59
2018-09-02T23:41:34.393Z,20.48
2018-09-02T23:44:03.615Z,20.28
2018-09-02T23:46:32.419Z,20.28
2018-09-02T23:49:01.422Z,19.98
2018-09-02T23:51:30.278Z,19.92
2018-09-02T23:53:59.212Z,19.93
2018-09-02T23:56:28.182Z,19.86
2018-09-02T23:58:57.295Z,19.79
